Πλησιέστερες Αναφορές METAR

 

LGTS - Thessaloniki/Makedonia-Elev 7m
Distance from station: Ν 13km
Ενημερώθηκε: 16/10/2021 12:20
Few Clouds
Few Clouds
 Ανεμος από ΒΒΔ
Ανεμος: ΒΒΔ 17 km/h
Θερμοκρασία: 16°C
Σημείο Δρόσου: 10°C
Υγρασία: 68%
Βαρόμετρο: 1012 hPa
Clouds: Few Clouds
Visibility: 10 km
Cloud details: Few Clouds 549 m
2021/10/16 09:20 LGTS 160920Z 34009KT 9999 FEW018 16/10 Q1012 NOSIG
LGAV - Athens/Elef. Venizelos-Elev 94m
Distance from station: ΝΝΑ 312km
Ενημερώθηκε: 16/10/2021 12:20
Few Clouds
Few Clouds
 Ανεμος από ΝΝΔ
Ανεμος: ΝΝΔ 13 km/h
Θερμοκρασία: 21°C
Σημείο Δρόσου: 9°C
Υγρασία: 46%
Βαρόμετρο: 1011 hPa
Clouds: Few Clouds
Visibility: 10 km
Cloud details: Few Clouds 762 m
2021/10/16 09:20 LGAV 160920Z 21007KT 9999 FEW025 21/09 Q1011 NOSIG
 
LGAL - Alexandroupolis-Elev 3m
Distance from station: Α 251km
Ενημερώθηκε: 16/10/2021 12:20
Μερικώς νεφελώδης
Μερικώς νεφελώδης
 Ανεμος από calm
Ανεμος: Απνοια
Θερμοκρασία: 17°C
Σημείο Δρόσου: 15°C
Υγρασία: 88%
Βαρόμετρο: 1010 hPa
Clouds: Μερικώς νεφελώδης
Visibility: 10 km
Cloud details: Few Clouds 244 m
Μερικώς νεφελώδης 762 m
2021/10/16 09:20 LGAL 160920Z 00000KT 9999 FEW008 SCT025 17/15 Q1010
LGKV - Kavala/Crysoupolis-Elev 5m
Distance from station: ΑΒΑ 144km
Ενημερώθηκε: 16/10/2021 12:20
Σχεδόν νεφελώδης
Σχεδόν νεφελώδης
 Ανεμος από varies
Ανεμος: varies 6 km/h
Θερμοκρασία: 18°C
Σημείο Δρόσου: 16°C
Υγρασία: 88%
Βαρόμετρο: 1010 hPa
Clouds: Σχεδόν νεφελώδης
Visibility: 10 km
Cloud details: Μερικώς νεφελώδης 549 m
Σχεδόν νεφελώδης 2438 m
2021/10/16 09:20 LGKV 160920Z VRB03KT 9999 SCT018 BKN080 18/16 Q1010
 
LGSK - Skiathos Island-Elev 15m
Distance from station: ΝΝΑ 168km
Ενημερώθηκε: 16/10/2021 11:50
Σχεδόν νεφελώδης
Σχεδόν νεφελώδης
 Ανεμος από varies
Ανεμος: varies 6 km/h
Θερμοκρασία: 17°C
Σημείο Δρόσου: 14°C
Υγρασία: 83%
Βαρόμετρο: 1011 hPa
Clouds: Σχεδόν νεφελώδης
Visibility: 10 km
Cloud details: Few Clouds 305 m
Σχεδόν νεφελώδης 762 m
2021/10/16 08:50 LGSK 160850Z VRB03KT 9999 FEW010 BKN025 17/14 Q1011
LGLM - Limnos Island-Elev 5m
Distance from station: ΑΝΑ 210km
Ενημερώθηκε: 16/10/2021 12:20
Μερικώς νεφελώδης
Μερικώς νεφελώδης
 Ανεμος από Ν
Ανεμος: Ν 9 km/h
Θερμοκρασία: 20°C
Σημείο Δρόσου: 16°C
Υγρασία: 78%
Βαρόμετρο: 1010 hPa
Clouds: Μερικώς νεφελώδης
Visibility: 10 km
Cloud details: Few Clouds 457 m
Μερικώς νεφελώδης 762 m
2021/10/16 09:20 LGLM 160920Z 18005KT 9999 FEW015 SCT025 20/16 Q1010
 
LGMT - Mitilini Island-Elev 17m
Distance from station: ΑΝΑ 358km
Ενημερώθηκε: 16/10/2021 12:20
Μερικώς νεφελώδης
Μερικώς νεφελώδης
 Ανεμος από ΝΝΑ
Ανεμος: ΝΝΑ 13 km/h
Θερμοκρασία: 22°C
Σημείο Δρόσου: 13°C
Υγρασία: 57%
Βαρόμετρο: 1012 hPa
Clouds: Μερικώς νεφελώδης
Visibility: 10 km
Cloud details: Μερικώς νεφελώδης 762 m
2021/10/16 09:20 LGMT 160920Z 15007KT 9999 SCT025 22/13 Q1012
LGSY - Skiros Island-Elev 15m
Distance from station: ΝΑ 227km
Ενημερώθηκε: 16/10/2021 11:50
Few Clouds
Few Clouds
 Ανεμος από ΒΔ
Ανεμος: ΒΔ 13 km/h
Θερμοκρασία: 20°C
Σημείο Δρόσου: 13°C
Υγρασία: 64%
Βαρόμετρο: 1011 hPa
Clouds: Few Clouds
Visibility: 10 km
Cloud details: Few Clouds 457 m
2021/10/16 08:50 LGSY 160850Z 32007KT 9999 FEW015 20/13 Q1011 RMK SCT070 FEW200 BLU
 
LGKZ - Kozani-Elev 628m
Distance from station: ΔΝΔ 102km
Ενημερώθηκε: 16/10/2021 11:50
Σχεδόν νεφελώδης
Σχεδόν νεφελώδης
 Ανεμος από ΒΒΔ
Ανεμος: ΒΒΔ 19 km/h
Θερμοκρασία: 12°C
Σημείο Δρόσου: 7°C
Υγρασία: 72%
Βαρόμετρο: 1013 hPa
Clouds: Σχεδόν νεφελώδης
Visibility: 10 km
Cloud details: Few Clouds 305 m
Μερικώς νεφελώδης 762 m
Σχεδόν νεφελώδης 2134 m
2021/10/16 08:50 LGKZ 160850Z 34010KT 9999 FEW010 SCT025 BKN070 12/07 Q1013
LGIO - Ioannina-Elev 476m
Distance from station: ΔΝΔ 209km
Ενημερώθηκε: 16/10/2021 12:20
Σχεδόν νεφελώδης
Σχεδόν νεφελώδης
 Ανεμος από calm
Ανεμος: Απνοια
Θερμοκρασία: 16°C
Σημείο Δρόσου: 12°C
Υγρασία: 77%
Βαρόμετρο: 1012 hPa
Clouds: Σχεδόν νεφελώδης
Visibility: 10 km
Cloud details: Μερικώς νεφελώδης 305 m
Μερικώς νεφελώδης 762 m
Σχεδόν νεφελώδης 2438 m
2021/10/16 09:20 LGIO 160920Z 00000KT 9999 SCT010 SCT025 BKN080 16/12 Q1012
 
LGZA - Zakinthos-Elev 3m
Distance from station: ΝΝΔ 367km
Ενημερώθηκε: 16/10/2021 11:50
Βροχή, Σχεδόν νεφελώδης
Βροχή, Σχεδόν νεφελώδης
 Ανεμος από varies
Ανεμος: varies 6 km/h
Θερμοκρασία: 17°C
Σημείο Δρόσου: 15°C
Υγρασία: 88%
Βαρόμετρο: 1013 hPa
Συνθήκες: Βροχή
Clouds: Σχεδόν νεφελώδης
Visibility: 7 km
Cloud details: Few Clouds 488 m
Μερικώς νεφελώδης 549 m
Σχεδόν νεφελώδης 2134 m
2021/10/16 08:50 LGZA 160850Z VRB03KT 7000 RA FEW016TCU SCT018 BKN070 17/15 Q1013
LGKR - Corfu Island-Elev 2m
Distance from station: ΔΝΔ 282km
Ενημερώθηκε: 16/10/2021 12:20
Μερικώς νεφελώδης
Μερικώς νεφελώδης
 Ανεμος από ΒΒΔ
Ανεμος: ΒΒΔ 11 km/h
Θερμοκρασία: 19°C
Σημείο Δρόσου: 9°C
Υγρασία: 52%
Βαρόμετρο: 1010 hPa
Clouds: Μερικώς νεφελώδης
Visibility: 10 km
Cloud details: Μερικώς νεφελώδης 549 m
Μερικώς νεφελώδης 914 m
2021/10/16 09:20 LGKR 160920Z 33006KT 9999 SCT018 SCT030 19/09 Q1010 NOSIG
 
LGSO - Syros Island-Elev 72m
Distance from station: ΝΝΑ 397km
Ενημερώθηκε: 16/10/2021 11:50
Μερικώς νεφελώδης
Μερικώς νεφελώδης
 Ανεμος από ΝΝΑ
Ανεμος: ΝΝΑ 26 km/h
Θερμοκρασία: 19°C
Σημείο Δρόσου: 15°C
Υγρασία: 78%
Βαρόμετρο: 1012 hPa
Clouds: Μερικώς νεφελώδης
Visibility: 10 km
Cloud details: Few Clouds 457 m
Μερικώς νεφελώδης 610 m
2021/10/16 08:50 LGSO 160850Z 16014KT 9999 FEW015 SCT020 19/15 Q1012
LGMK - Mikonos Island-Elev 123m
Distance from station: ΝΝΑ 412km
Ενημερώθηκε: 16/10/2021 12:20
Μερικώς νεφελώδης
Μερικώς νεφελώδης
 Ανεμος από varies
Ανεμος: varies 0 km/h
Θερμοκρασία: 18°C
Σημείο Δρόσου: 13°C
Υγρασία: 73%
Βαρόμετρο: 1012 hPa
Clouds: Μερικώς νεφελώδης
Visibility: 10 km
Cloud details: Few Clouds 305 m
Few Clouds 457 m
Μερικώς νεφελώδης 762 m
2021/10/16 09:20 LGMK 160920Z /////KT 9999 FEW010 FEW015TCU SCT025 18/13 Q1012
 
LGSR - Santorini Island-Elev 40m
Distance from station: ΝΝΑ 520km
Ενημερώθηκε: 16/10/2021 12:20
Μερικώς νεφελώδης
Μερικώς νεφελώδης
 Ανεμος από ΝΝΔ
Ανεμος: ΝΝΔ 30 km/h
Θερμοκρασία: 22°C
Σημείο Δρόσου: 12°C
Υγρασία: 53%
Βαρόμετρο: 1013 hPa
Clouds: Μερικώς νεφελώδης
Visibility: 10 km
Cloud details: Μερικώς νεφελώδης 762 m
2021/10/16 09:20 LGSR 160920Z 20016KT 9999 SCT025 22/12 Q1013
LGKL - Kalamata-Elev 8m
Distance from station: Ν 405km
Ενημερώθηκε: 16/10/2021 12:20
Σχεδόν νεφελώδης
Σχεδόν νεφελώδης
 Ανεμος από varies
Ανεμος: varies 6 km/h
Θερμοκρασία: 20°C
Σημείο Δρόσου: 13°C
Υγρασία: 64%
Βαρόμετρο: 1013 hPa
Clouds: Σχεδόν νεφελώδης
Visibility: 10 km
Cloud details: Few Clouds 549 m
Μερικώς νεφελώδης 914 m
Σχεδόν νεφελώδης 2438 m
2021/10/16 09:20 LGKL 160920Z VRB03KT 9999 FEW018 SCT030 BKN080 20/13 Q1013
 
LGIR - Iraklion/Crete-Elev 5m
Distance from station: ΝΝΑ 622km
Ενημερώθηκε: 16/10/2021 12:20
Μερικώς νεφελώδης
Μερικώς νεφελώδης
 Ανεμος από Ν
Ανεμος: Ν 26 km/h
Θερμοκρασία: 24°C
Σημείο Δρόσου: 13°C
Υγρασία: 50%
Βαρόμετρο: 1013 hPa
Clouds: Μερικώς νεφελώδης
Visibility: 10 km
Cloud details: Μερικώς νεφελώδης 762 m
Μερικώς νεφελώδης 2134 m
2021/10/16 09:20 LGIR 160920Z 17014KT 9999 SCT025 SCT070 24/13 Q1013 NOSIG
LGRP - Rhodes-Elev 5m
Distance from station: ΝΑ 649km
Ενημερώθηκε: 16/10/2021 12:20
Few Clouds
Few Clouds
 Ανεμος από Δ
Ανεμος: Δ 13 km/h
Θερμοκρασία: 24°C
Σημείο Δρόσου: 14°C
Υγρασία: 54%
Βαρόμετρο: 1014 hPa
Clouds: Few Clouds
Visibility: 10 km
Cloud details: Few Clouds 549 m
2021/10/16 09:20 LGRP 160920Z 26007KT 9999 FEW018 24/14 Q1014 NOSIG
 
LWOH - Ohrid/FYROM-Elev 761m
Distance from station: ΔΒΔ 188km
Ενημερώθηκε: 16/10/2021 12:30
Σχεδόν νεφελώδης
Σχεδόν νεφελώδης
 Ανεμος από ΔΒΔ
Ανεμος: ΔΒΔ 19 km/h
Θερμοκρασία: 11°C
Σημείο Δρόσου: 6°C
Υγρασία: 72%
Βαρόμετρο: 1014 hPa
Clouds: Σχεδόν νεφελώδης
Visibility: 10 km
Cloud details: Few Clouds 701 m
Μερικώς νεφελώδης 1219 m
Σχεδόν νεφελώδης 2134 m
2021/10/16 09:30 LWOH 160930Z 30010KT 9999 FEW023 SCT040 BKN070 11/06 Q1014
LBSF - Sofia/Bulgaria-Elev 595m
Distance from station: Β 227km
Ενημερώθηκε: 16/10/2021 12:30
Συννεφιά
Συννεφιά
 Ανεμος από ΔΒΔ
Ανεμος: ΔΒΔ 7 km/h
Θερμοκρασία: 10°C
Wind Chill: 9°C
Σημείο Δρόσου: 8°C
Υγρασία: 88%
Βαρόμετρο: 1014 hPa
Clouds: Συννεφιά
Visibility: 10 km
Cloud details: Σχεδόν νεφελώδης 244 m
Συννεφιά 610 m
2021/10/16 09:30 LBSF 160930Z 29004KT 250V320 9999 BKN008 OVC020 10/08 Q1014 NOSIG
Σημερινά ρεκόρ Μετεωρολογικού Σταθμού
Η Μέγιστη τιμή Σημείου Δρόσου των 4.6°C ξεπέρασε τη Μέγιστη Μηνιαία τιμή των 3.1°C που σημειώθηκε στις 14/10/2021 κατά 1.5°